Forks, WA (98331)

11:34 PM PST on January 18, 2017 (GMT -0800)
MFRKW1 | | Change Station
Active Advisory: Small Craft Advisory

Elev 301 ft 47.96 °N, 124.39 °W | Updated 11 minutes ago

Rain
Rain
44.0 °F
Feels Like 44 °F
N
1.0
Wind Variable Wind from SE
Gusts 9.0 mph

Today
High -- | Low -- °F
--% Chance of Precip.
Yesterday
High -- | Low -- °F
Precip. -- in
Pressure 29.26 in
Visibility 10.0 miles
Clouds Overcast 700 ft
Windchill 44 °F
Dew Point 42 °F
Humidity 93%
Rainfall 1.70 in
Snow Depth Not available.
7:59 AM 4:57 PM
Waning Gibbous, 56% visible
METAR KUIL 190653Z AUTO 16005KT 10SM -RA OVC007 08/07 A2926 RMK AO2 CIG 005V012 SLP909 P0010 T00780072
Pressure 29.26 in
Visibility 10.0 miles
Clouds Overcast 700 ft
Windchill 44 °F
Dew Point 42 °F
Humidity 93%
Rainfall 1.70 in
Snow Depth Not available.
7:59 AM 4:57 PM
Waning Gibbous, 56% visible
METAR KUIL 190653Z AUTO 16005KT 10SM -RA OVC007 08/07 A2926 RMK AO2 CIG 005V012 SLP909 P0010 T00780072

Get Your Daily Forecast Email!

Thanks for signing up!

Be on the lookout for a verification email in your inbox.

You'll start receiving the daily forecast at 8 AM.

×

10-Day Weather Forecast

Almanac

Astronomy

Jan. 18, 2017 Rise Set
Actual Time
Civil Twilight
Nautical Twilight
Astronomical Twilight
Moon
Length of Visible Light
Length of Day
Tomorrow will be .
, % of the Moon is Illuminated

Today's Extremes

State Highs State Lows

Community

WunderPhotos

Upload Photos

1,962,540 photos uploaded!

WunderBlog® & News

Nearby

Air Quality

  Air Quality AQ Index Pollutant
Not available.

Snow Depth

Station Depth Elevation

Earthquake Activity

City Distance Mag. Time & Date
Minimum magnitude displayed is 2.5.

Coastal Water Temperatures

Place Temperature

Stations

Nearby Weather Stations

Station Location Temp. Windchill Dew Point Humidity Wind Precip. Elev Updated Type
                   

Watches & Warnings

Small Craft Advisory
Issued: 8:33 PM PST Jan. 18, 2017 – National Weather Service

... Small Craft Advisory remains in effect until 10 am PST
Thursday...

* winds... southerly 15 to 30 kt.

Precautionary/preparedness actions...

A Small Craft Advisory means that wind speeds of 21 to 33 knots are
expected to produce hazardous wave conditions to small craft.
Inexperienced mariners... especially those operating smaller vessels
should avoid navigating in these conditions.